Skip Navigation Links Skip Navigation Links

Current Weather

South Bend Regional, South Bend, Ind.

For information only: do not use for flight planning or navigation.
Latest weather
Observation time Friday, December 3, 2021 3:54 AM EST
Local time Friday, December 3, 2021 5:04 AM EST
Flight conditions Visual Meteorological Conditions
Winds
Wind direction Southwest (220°)
Wind speed 3 mph
Visibility 10 mi.
Sky condition
Ceiling 7,000 ft. overcast
Cloud layer overcast 7,000 ft.
Temperature 39°F
Dewpoint 34°F
Altimeter 30.06 in.Hg
Pressure change last 3 hours-0.01 in.Hg
Pressure rising more quickly
Derived measurements
Relative humidity 82%
Wind chill 37°F
Density altitude -607 ft.
Sea-level pressure 30.07 in.Hg
Remarks
Fully automated report.
Automated weather observing station with precipitation discriminator.
METAR KSBN 030854Z AUTO 22003KT 10SM OVC070 04/01 A3006 RMK AO2 SLP184 T00390011 53005

Settings

Location code

InnerDrive.Weather 4.0.6770.0 Release CLR 4.0.30319.42000
Copyright ©2018 Inner Drive Technology. All rights reserved. Portions Copyright ©1986-2018 David Braverman.

Find weather

Site navigation


Skip Navigation Links

Place info

Page info

PayPal - The safer, easier way to pay online!

Return home.

Copyright ©2021 Inner Drive Technology. Purveyors of fine, hand-crafted computer software. Page printed 2021-12-03T10:04:34 UTC.